sensor_id;sensor_type;location;lat;lon;timestamp;pressure;altitude;pressure_sealevel;temperature;humidity
64616;BME280;51027;42.162;24.754;2023-01-29T00:01:24;99910.59;;;3.34;80.34
64616;BME280;51027;42.162;24.754;2023-01-29T00:03:50;99901.91;;;3.37;79.82
64616;BME280;51027;42.162;24.754;2023-01-29T00:06:16;99906.34;;;3.23;80.49
64616;BME280;51027;42.162;24.754;2023-01-29T00:08:42;99908.91;;;3.32;79.86
64616;BME280;51027;42.162;24.754;2023-01-29T00:11:08;99907.09;;;3.43;79.48
64616;BME280;51027;42.162;24.754;2023-01-29T00:13:33;99910.38;;;3.66;79.15
64616;BME280;51027;42.162;24.754;2023-01-29T00:15:59;99915.50;;;3.75;78.07
64616;BME280;51027;42.162;24.754;2023-01-29T00:18:26;99901.00;;;3.42;79.35
64616;BME280;51027;42.162;24.754;2023-01-29T00:20:52;99899.25;;;3.46;79.03
64616;BME280;51027;42.162;24.754;2023-01-29T00:23:17;99921.06;;;3.31;79.15
64616;BME280;51027;42.162;24.754;2023-01-29T00:25:43;99912.34;;;3.34;79.31
64616;BME280;51027;42.162;24.754;2023-01-29T00:28:09;99928.69;;;3.56;78.70
64616;BME280;51027;42.162;24.754;2023-01-29T00:30:35;99922.81;;;3.26;78.86
64616;BME280;51027;42.162;24.754;2023-01-29T00:33:02;99933.16;;;3.38;79.22
64616;BME280;51027;42.162;24.754;2023-01-29T00:35:27;99947.16;;;3.19;80.13
64616;BME280;51027;42.162;24.754;2023-01-29T00:37:56;99941.72;;;3.53;79.26
64616;BME280;51027;42.162;24.754;2023-01-29T00:40:21;99942.66;;;3.44;79.60
64616;BME280;51027;42.162;24.754;2023-01-29T00:42:47;99943.56;;;3.37;80.03
64616;BME280;51027;42.162;24.754;2023-01-29T00:45:32;99931.41;;;3.39;79.58
64616;BME280;51027;42.162;24.754;2023-01-29T00:47:58;99940.06;;;3.44;79.70
64616;BME280;51027;42.162;24.754;2023-01-29T00:50:24;99893.44;;;3.07;80.31
64616;BME280;51027;42.162;24.754;2023-01-29T00:52:49;99927.91;;;3.43;79.50
64616;BME280;51027;42.162;24.754;2023-01-29T00:55:16;99942.63;;;3.45;79.02
64616;BME280;51027;42.162;24.754;2023-01-29T00:57:42;99936.66;;;3.33;79.80
64616;BME280;51027;42.162;24.754;2023-01-29T01:00:11;99944.50;;;3.30;79.38
64616;BME280;51027;42.162;24.754;2023-01-29T01:02:37;99938.50;;;3.11;79.98
64616;BME280;51027;42.162;24.754;2023-01-29T01:05:20;99945.47;;;3.09;80.38
64616;BME280;51027;42.162;24.754;2023-01-29T01:07:48;99938.50;;;3.14;80.45
64616;BME280;51027;42.162;24.754;2023-01-29T01:12:48;99917.81;;;2.88;80.81
64616;BME280;51027;42.162;24.754;2023-01-29T01:15:15;99916.91;;;2.92;80.97
64616;BME280;51027;42.162;24.754;2023-01-29T01:17:41;99943.75;;;3.02;81.41
64616;BME280;51027;42.162;24.754;2023-01-29T01:20:07;99948.88;;;3.15;81.42
64616;BME280;51027;42.162;24.754;2023-01-29T01:22:33;99938.56;;;2.99;81.60
64616;BME280;51027;42.162;24.754;2023-01-29T01:24:58;99946.34;;;3.03;81.96
64616;BME280;51027;42.162;24.754;2023-01-29T01:27:23;99948.00;;;3.16;81.34
64616;BME280;51027;42.162;24.754;2023-01-29T01:29:49;99961.06;;;3.06;82.02
64616;BME280;51027;42.162;24.754;2023-01-29T01:32:15;99950.66;;;3.12;81.76
64616;BME280;51027;42.162;24.754;2023-01-29T01:34:40;99947.22;;;3.04;81.97
64616;BME280;51027;42.162;24.754;2023-01-29T01:37:06;99927.38;;;2.81;82.24
64616;BME280;51027;42.162;24.754;2023-01-29T01:39:31;99949.81;;;3.05;82.07
64616;BME280;51027;42.162;24.754;2023-01-29T01:41:56;99950.66;;;3.09;81.78
64616;BME280;51027;42.162;24.754;2023-01-29T01:45:16;99946.34;;;3.05;81.64
64616;BME280;51027;42.162;24.754;2023-01-29T01:47:51;99951.50;;;3.14;81.90
64616;BME280;51027;42.162;24.754;2023-01-29T01:50:28;99916.94;;;2.91;81.55
64616;BME280;51027;42.162;24.754;2023-01-29T01:52:59;99953.28;;;3.03;81.74
64616;BME280;51027;42.162;24.754;2023-01-29T01:55:27;99938.53;;;3.09;81.42
64616;BME280;51027;42.162;24.754;2023-01-29T01:58:37;99942.91;;;3.00;81.99
64616;BME280;51027;42.162;24.754;2023-01-29T02:01:03;99949.84;;;3.01;82.23
64616;BME280;51027;42.162;24.754;2023-01-29T02:03:30;99952.47;;;2.93;82.66
64616;BME280;51027;42.162;24.754;2023-01-29T02:06:17;99899.69;;;2.70;82.56
64616;BME280;51027;42.162;24.754;2023-01-29T02:09:06;99955.00;;;3.10;82.26
64616;BME280;51027;42.162;24.754;2023-01-29T02:11:52;99946.34;;;3.09;82.01
64616;BME280;51027;42.162;24.754;2023-01-29T02:14:18;99941.22;;;2.91;82.72
64616;BME280;51027;42.162;24.754;2023-01-29T02:16:44;99942.09;;;2.90;82.57
64616;BME280;51027;42.162;24.754;2023-01-29T02:19:19;99934.31;;;2.81;82.85
64616;BME280;51027;42.162;24.754;2023-01-29T02:21:51;99962.84;;;2.96;83.07
64616;BME280;51027;42.162;24.754;2023-01-29T02:27:20;99976.72;;;3.00;83.25
64616;BME280;51027;42.162;24.754;2023-01-29T02:30:04;99967.16;;;3.03;82.98
64616;BME280;51027;42.162;24.754;2023-01-29T02:32:43;99978.41;;;3.10;82.75
64616;BME280;51027;42.162;24.754;2023-01-29T02:42:22;99983.66;;;3.02;82.89
64616;BME280;51027;42.162;24.754;2023-01-29T02:44:31;99986.28;;;2.93;83.31
64616;BME280;51027;42.162;24.754;2023-01-29T02:47:08;99962.03;;;2.83;83.48
64616;BME280;51027;42.162;24.754;2023-01-29T02:52:29;99981.06;;;2.93;83.57
64616;BME280;51027;42.162;24.754;2023-01-29T02:55:21;99981.00;;;3.14;83.52
64616;BME280;51027;42.162;24.754;2023-01-29T02:57:50;99983.66;;;3.07;84.02
64616;BME280;51027;42.162;24.754;2023-01-29T03:00:40;99963.63;;;3.20;83.22
64616;BME280;51027;42.162;24.754;2023-01-29T03:03:19;99978.34;;;3.25;83.52
64616;BME280;51027;42.162;24.754;2023-01-29T03:05:53;99983.63;;;3.08;84.67
64616;BME280;51027;42.162;24.754;2023-01-29T03:08:42;99993.09;;;3.22;84.31
64616;BME280;51027;42.162;24.754;2023-01-29T03:11:13;99994.84;;;3.20;85.39
64616;BME280;51027;42.162;24.754;2023-01-29T03:19:41;100000.94;;;3.20;84.96
64616;BME280;51027;42.162;24.754;2023-01-29T03:22:10;99999.19;;;3.19;85.63
64616;BME280;51027;42.162;24.754;2023-01-29T03:24:49;99999.16;;;3.30;85.05
64616;BME280;51027;42.162;24.754;2023-01-29T03:27:43;100002.66;;;3.15;84.82
64616;BME280;51027;42.162;24.754;2023-01-29T03:30:29;100004.47;;;3.01;85.96
64616;BME280;51027;42.162;24.754;2023-01-29T03:33:18;99980.22;;;2.97;85.76
64616;BME280;51027;42.162;24.754;2023-01-29T03:35:49;99994.06;;;3.07;85.22
64616;BME280;51027;42.162;24.754;2023-01-29T03:38:17;100016.59;;;3.02;85.54
64616;BME280;51027;42.162;24.754;2023-01-29T03:40:58;100009.63;;;3.11;85.70
64616;BME280;51027;42.162;24.754;2023-01-29T03:43:33;99987.19;;;2.89;85.55
64616;BME280;51027;42.162;24.754;2023-01-29T03:46:55;100001.00;;;3.03;85.51
64616;BME280;51027;42.162;24.754;2023-01-29T03:51:40;100014.88;;;2.96;85.98
64616;BME280;51027;42.162;24.754;2023-01-29T03:56:43;100015.69;;;3.15;86.03
64616;BME280;51027;42.162;24.754;2023-01-29T03:59:22;100021.84;;;2.83;86.96
64616;BME280;51027;42.162;24.754;2023-01-29T04:01:56;100021.84;;;2.93;87.06
64616;BME280;51027;42.162;24.754;2023-01-29T04:04:35;100026.16;;;3.01;87.08
64616;BME280;51027;42.162;24.754;2023-01-29T04:07:22;100031.41;;;2.83;87.83
64616;BME280;51027;42.162;24.754;2023-01-29T04:10:08;100033.16;;;2.76;88.60
64616;BME280;51027;42.162;24.754;2023-01-29T04:13:00;100031.44;;;2.62;89.58
64616;BME280;51027;42.162;24.754;2023-01-29T04:15:27;100040.97;;;2.63;90.01
64616;BME280;51027;42.162;24.754;2023-01-29T04:17:54;100046.19;;;2.59;90.90
64616;BME280;51027;42.162;24.754;2023-01-29T04:20:21;100037.56;;;2.45;90.97
64616;BME280;51027;42.162;24.754;2023-01-29T04:22:49;100051.41;;;2.50;91.76
64616;BME280;51027;42.162;24.754;2023-01-29T04:25:20;100050.53;;;2.53;91.58
64616;BME280;51027;42.162;24.754;2023-01-29T04:28:00;100043.59;;;2.44;91.87
64616;BME280;51027;42.162;24.754;2023-01-29T04:41:34;100062.66;;;2.43;94.35
64616;BME280;51027;42.162;24.754;2023-01-29T04:46:32;100064.41;;;2.47;95.33
64616;BME280;51027;42.162;24.754;2023-01-29T04:54:27;100073.94;;;2.39;99.16
64616;BME280;51027;42.162;24.754;2023-01-29T04:59:31;100061.81;;;2.40;100.00
64616;BME280;51027;42.162;24.754;2023-01-29T05:01:59;100071.31;;;2.62;100.00
64616;BME280;51027;42.162;24.754;2023-01-29T05:04:28;100077.38;;;2.59;100.00
64616;BME280;51027;42.162;24.754;2023-01-29T05:06:56;100078.28;;;2.55;100.00
64616;BME280;51027;42.162;24.754;2023-01-29T05:09:23;100073.94;;;2.48;100.00
64616;BME280;51027;42.162;24.754;2023-01-29T05:11:49;100035.81;;;2.18;100.00
64616;BME280;51027;42.162;24.754;2023-01-29T05:14:17;100080.88;;;2.37;100.00
64616;BME280;51027;42.162;24.754;2023-01-29T05:16:50;100053.16;;;2.36;100.00
64616;BME280;51027;42.162;24.754;2023-01-29T05:19:16;100076.53;;;2.50;100.00
64616;BME280;51027;42.162;24.754;2023-01-29T05:21:45;100084.31;;;2.50;100.00
64616;BME280;51027;42.162;24.754;2023-01-29T05:24:22;100055.72;;;2.35;100.00
64616;BME280;51027;42.162;24.754;2023-01-29T05:26:49;100087.78;;;2.64;100.00
64616;BME280;51027;42.162;24.754;2023-01-29T05:29:33;100095.56;;;2.63;100.00
64616;BME280;51027;42.162;24.754;2023-01-29T05:31:59;100081.69;;;2.73;100.00
64616;BME280;51027;42.162;24.754;2023-01-29T05:34:24;100097.31;;;2.86;100.00
64616;BME280;51027;42.162;24.754;2023-01-29T05:36:50;100088.63;;;2.83;100.00
64616;BME280;51027;42.162;24.754;2023-01-29T05:39:15;100064.34;;;2.82;100.00
64616;BME280;51027;42.162;24.754;2023-01-29T05:41:41;100095.50;;;3.11;99.68
64616;BME280;51027;42.162;24.754;2023-01-29T05:44:08;100102.47;;;3.02;99.42
64616;BME280;51027;42.162;24.754;2023-01-29T05:46:34;100102.47;;;2.99;99.79
64616;BME280;51027;42.162;24.754;2023-01-29T05:49:00;100085.16;;;2.79;98.12
64616;BME280;51027;42.162;24.754;2023-01-29T05:51:25;100104.22;;;2.86;98.51
64616;BME280;51027;42.162;24.754;2023-01-29T05:53:50;100108.53;;;3.10;97.52
64616;BME280;51027;42.162;24.754;2023-01-29T05:56:16;100116.31;;;3.11;96.38
64616;BME280;51027;42.162;24.754;2023-01-29T05:58:41;100100.72;;;3.17;96.61
64616;BME280;51027;42.162;24.754;2023-01-29T06:01:15;100088.59;;;2.94;96.22
64616;BME280;51027;42.162;24.754;2023-01-29T06:03:41;100123.28;;;3.02;96.66
64616;BME280;51027;42.162;24.754;2023-01-29T06:06:07;100115.50;;;2.97;95.35
64616;BME280;51027;42.162;24.754;2023-01-29T06:08:32;100134.53;;;3.11;96.46
64616;BME280;51027;42.162;24.754;2023-01-29T06:10:58;100132.81;;;2.94;96.15
64616;BME280;51027;42.162;24.754;2023-01-29T06:13:23;100131.94;;;3.08;95.96
64616;BME280;51027;42.162;24.754;2023-01-29T06:15:49;100137.16;;;2.93;96.46
64616;BME280;51027;42.162;24.754;2023-01-29T06:18:14;100133.69;;;2.96;96.89
64616;BME280;51027;42.162;24.754;2023-01-29T06:20:40;100126.72;;;3.13;96.15
64616;BME280;51027;42.162;24.754;2023-01-29T06:23:05;100128.53;;;2.86;96.47
64616;BME280;51027;42.162;24.754;2023-01-29T06:25:31;100138.00;;;3.20;96.23
64616;BME280;51027;42.162;24.754;2023-01-29T06:27:56;100142.34;;;3.04;95.51
64616;BME280;51027;42.162;24.754;2023-01-29T06:30:21;100154.50;;;2.99;95.87
64616;BME280;51027;42.162;24.754;2023-01-29T06:32:47;100157.97;;;3.01;95.73
64616;BME280;51027;42.162;24.754;2023-01-29T06:35:12;100114.59;;;2.95;95.10
64616;BME280;51027;42.162;24.754;2023-01-29T06:37:38;100161.38;;;3.36;93.67
64616;BME280;51027;42.162;24.754;2023-01-29T06:40:03;100139.66;;;3.42;92.76
64616;BME280;51027;42.162;24.754;2023-01-29T06:42:29;100144.84;;;3.45;91.20
64616;BME280;51027;42.162;24.754;2023-01-29T06:44:55;100112.88;;;2.93;90.42
64616;BME280;51027;42.162;24.754;2023-01-29T06:47:20;100160.53;;;3.25;90.61
64616;BME280;51027;42.162;24.754;2023-01-29T06:49:46;100151.88;;;3.22;90.21
64616;BME280;51027;42.162;24.754;2023-01-29T06:52:11;100163.97;;;3.41;90.00
64616;BME280;51027;42.162;24.754;2023-01-29T06:54:37;100167.47;;;3.38;89.97
64616;BME280;51027;42.162;24.754;2023-01-29T06:57:02;100166.56;;;3.42;88.80
64616;BME280;51027;42.162;24.754;2023-01-29T06:59:28;100165.69;;;3.42;88.60
64616;BME280;51027;42.162;24.754;2023-01-29T07:01:53;100176.94;;;3.55;87.79
64616;BME280;51027;42.162;24.754;2023-01-29T07:04:19;100147.53;;;3.24;86.93
64616;BME280;51027;42.162;24.754;2023-01-29T07:06:44;100167.44;;;3.35;87.18
64616;BME280;51027;42.162;24.754;2023-01-29T07:09:12;100165.72;;;3.40;87.14
64616;BME280;51027;42.162;24.754;2023-01-29T07:11:38;100186.47;;;3.56;87.48
64616;BME280;51027;42.162;24.754;2023-01-29T07:14:04;100189.03;;;3.72;86.88
64616;BME280;51027;42.162;24.754;2023-01-29T07:16:30;100199.47;;;3.72;86.34
64616;BME280;51027;42.162;24.754;2023-01-29T07:18:55;100189.06;;;3.65;87.10
64616;BME280;51027;42.162;24.754;2023-01-29T07:21:21;100199.56;;;3.48;88.47
64616;BME280;51027;42.162;24.754;2023-01-29T07:23:46;100201.25;;;3.46;89.12
64616;BME280;51027;42.162;24.754;2023-01-29T07:26:12;100200.38;;;3.53;88.48
64616;BME280;51027;42.162;24.754;2023-01-29T07:28:38;100190.78;;;3.70;87.27
64616;BME280;51027;42.162;24.754;2023-01-29T07:31:05;100192.47;;;3.85;87.50
64616;BME280;51027;42.162;24.754;2023-01-29T07:33:30;100134.34;;;3.72;86.72
64616;BME280;51027;42.162;24.754;2023-01-29T07:35:56;100196.66;;;4.18;85.18
64616;BME280;51027;42.162;24.754;2023-01-29T07:38:21;100155.94;;;3.99;84.22
64616;BME280;51027;42.162;24.754;2023-01-29T07:40:47;100202.66;;;4.36;83.75
64616;BME280;51027;42.162;24.754;2023-01-29T07:43:13;100198.28;;;4.38;83.69
64616;BME280;51027;42.162;24.754;2023-01-29T07:45:40;100192.31;;;4.20;84.03
64616;BME280;51027;42.162;24.754;2023-01-29T07:48:06;100197.56;;;4.13;84.13
64616;BME280;51027;42.162;24.754;2023-01-29T07:50:34;100190.31;;;4.57;82.74
64616;BME280;51027;42.162;24.754;2023-01-29T07:53:00;100200.81;;;4.53;83.17
64616;BME280;51027;42.162;24.754;2023-01-29T07:55:26;100205.13;;;4.57;82.49
64616;BME280;51027;42.162;24.754;2023-01-29T07:57:55;100205.31;;;4.25;82.90
64616;BME280;51027;42.162;24.754;2023-01-29T08:00:21;100209.44;;;4.59;82.62
64616;BME280;51027;42.162;24.754;2023-01-29T08:02:46;100179.16;;;4.40;81.89
64616;BME280;51027;42.162;24.754;2023-01-29T08:05:12;100186.94;;;4.45;82.20
64616;BME280;51027;42.162;24.754;2023-01-29T08:07:37;100218.19;;;4.49;82.58
64616;BME280;51027;42.162;24.754;2023-01-29T08:10:03;100199.13;;;4.44;82.29
64616;BME280;51027;42.162;24.754;2023-01-29T08:12:29;100202.19;;;4.98;80.78
64616;BME280;51027;42.162;24.754;2023-01-29T08:14:54;100229.41;;;4.67;82.49
64616;BME280;51027;42.162;24.754;2023-01-29T08:17:19;100230.94;;;4.97;82.47
64616;BME280;51027;42.162;24.754;2023-01-29T08:19:45;100226.78;;;4.67;83.11
64616;BME280;51027;42.162;24.754;2023-01-29T08:22:10;100219.97;;;4.46;84.36
64616;BME280;51027;42.162;24.754;2023-01-29T08:24:36;100216.16;;;4.94;82.31
64616;BME280;51027;42.162;24.754;2023-01-29T08:27:01;100224.03;;;4.91;82.11
64616;BME280;51027;42.162;24.754;2023-01-29T08:29:26;100225.88;;;4.75;83.64
64616;BME280;51027;42.162;24.754;2023-01-29T08:31:52;100225.75;;;4.92;82.18
64616;BME280;51027;42.162;24.754;2023-01-29T08:34:17;100215.56;;;4.57;82.80
64616;BME280;51027;42.162;24.754;2023-01-29T08:36:43;100200.94;;;4.28;84.49
64616;BME280;51027;42.162;24.754;2023-01-29T08:39:08;100224.34;;;4.39;84.76
64616;BME280;51027;42.162;24.754;2023-01-29T08:41:34;100234.78;;;4.41;84.78
64616;BME280;51027;42.162;24.754;2023-01-29T08:43:59;100232.25;;;4.24;85.97
64616;BME280;51027;42.162;24.754;2023-01-29T08:46:26;100228.72;;;4.36;85.95
64616;BME280;51027;42.162;24.754;2023-01-29T08:48:51;100247.88;;;4.27;86.51
64616;BME280;51027;42.162;24.754;2023-01-29T08:51:17;100247.06;;;4.16;87.35
64616;BME280;51027;42.162;24.754;2023-01-29T08:53:43;100211.38;;;4.30;86.14
64616;BME280;51027;42.162;24.754;2023-01-29T08:56:08;100246.88;;;4.54;85.96
64616;BME280;51027;42.162;24.754;2023-01-29T08:58:34;100244.31;;;4.51;86.13
64616;BME280;51027;42.162;24.754;2023-01-29T09:01:07;100254.53;;;4.78;85.67
64616;BME280;51027;42.162;24.754;2023-01-29T09:03:33;100209.34;;;4.76;86.08
64616;BME280;51027;42.162;24.754;2023-01-29T09:05:58;100242.09;;;5.14;85.21
64616;BME280;51027;42.162;24.754;2023-01-29T09:08:23;100239.47;;;5.17;84.13
64616;BME280;51027;42.162;24.754;2023-01-29T09:10:49;100237.31;;;5.60;82.43
64616;BME280;51027;42.162;24.754;2023-01-29T09:13:14;100216.09;;;5.91;80.86
64616;BME280;51027;42.162;24.754;2023-01-29T09:15:40;100242.31;;;5.83;80.54
64616;BME280;51027;42.162;24.754;2023-01-29T09:18:05;100234.09;;;5.35;82.44
64616;BME280;51027;42.162;24.754;2023-01-29T09:20:30;100219.59;;;4.98;84.14
64616;BME280;51027;42.162;24.754;2023-01-29T09:22:56;100234.22;;;5.18;84.29
64616;BME280;51027;42.162;24.754;2023-01-29T09:25:23;100238.88;;;4.81;85.09
64616;BME280;51027;42.162;24.754;2023-01-29T09:27:49;100236.25;;;4.84;86.23
64616;BME280;51027;42.162;24.754;2023-01-29T09:30:15;100236.28;;;4.78;88.06
64616;BME280;51027;42.162;24.754;2023-01-29T09:32:41;100235.31;;;4.88;86.70
64616;BME280;51027;42.162;24.754;2023-01-29T09:35:07;100235.56;;;4.56;89.16
64616;BME280;51027;42.162;24.754;2023-01-29T09:37:33;100234.47;;;4.91;89.00
64616;BME280;51027;42.162;24.754;2023-01-29T09:39:58;100211.25;;;4.48;90.39
64616;BME280;51027;42.162;24.754;2023-01-29T09:42:28;100235.66;;;4.38;92.07
64616;BME280;51027;42.162;24.754;2023-01-29T09:45:05;100232.13;;;4.50;91.97
64616;BME280;51027;42.162;24.754;2023-01-29T09:47:35;100223.06;;;5.03;89.20
64616;BME280;51027;42.162;24.754;2023-01-29T09:52:52;100206.75;;;4.75;87.53
64616;BME280;51027;42.162;24.754;2023-01-29T09:55:30;100212.81;;;4.77;87.44
64616;BME280;51027;42.162;24.754;2023-01-29T09:58:17;100213.50;;;5.02;87.09
64616;BME280;51027;42.162;24.754;2023-01-29T10:00:56;100193.84;;;4.55;87.63
64616;BME280;51027;42.162;24.754;2023-01-29T10:06:18;100213.63;;;4.83;86.62
64616;BME280;51027;42.162;24.754;2023-01-29T10:11:26;100205.88;;;4.74;86.54
64616;BME280;51027;42.162;24.754;2023-01-29T10:19:47;100201.47;;;4.84;88.41
64616;BME280;51027;42.162;24.754;2023-01-29T10:25:31;100196.38;;;4.66;88.71
64616;BME280;51027;42.162;24.754;2023-01-29T10:27:40;100188.88;;;5.29;86.18
64616;BME280;51027;42.162;24.754;2023-01-29T10:30:20;100165.47;;;5.21;85.56
64616;BME280;51027;42.162;24.754;2023-01-29T10:32:46;100170.56;;;5.30;84.77
64616;BME280;51027;42.162;24.754;2023-01-29T10:35:21;100178.50;;;5.23;85.92
64616;BME280;51027;42.162;24.754;2023-01-29T10:37:47;100156.97;;;4.96;85.43
64616;BME280;51027;42.162;24.754;2023-01-29T10:40:21;100168.31;;;5.76;83.00
64616;BME280;51027;42.162;24.754;2023-01-29T10:43:11;100158.97;;;6.28;80.54
64616;BME280;51027;42.162;24.754;2023-01-29T10:45:47;100160.31;;;5.89;80.54
64616;BME280;51027;42.162;24.754;2023-01-29T10:54:06;100157.31;;;5.48;81.24
64616;BME280;51027;42.162;24.754;2023-01-29T11:01:58;100153.16;;;6.66;75.46
64616;BME280;51027;42.162;24.754;2023-01-29T11:04:25;100128.41;;;5.65;78.11
64616;BME280;51027;42.162;24.754;2023-01-29T11:06:52;100148.16;;;5.86;78.18
64616;BME280;51027;42.162;24.754;2023-01-29T11:09:28;100143.78;;;5.93;78.73
64616;BME280;51027;42.162;24.754;2023-01-29T11:11:57;100144.75;;;6.46;77.11
64616;BME280;51027;42.162;24.754;2023-01-29T11:17:17;100144.66;;;5.87;76.96
64616;BME280;51027;42.162;24.754;2023-01-29T11:19:45;100140.50;;;5.71;77.26
64616;BME280;51027;42.162;24.754;2023-01-29T11:22:20;100127.63;;;5.56;79.29
64616;BME280;51027;42.162;24.754;2023-01-29T11:25:05;100137.13;;;6.30;76.82
64616;BME280;51027;42.162;24.754;2023-01-29T11:27:33;100118.25;;;5.39;79.61
64616;BME280;51027;42.162;24.754;2023-01-29T11:30:00;100104.22;;;6.16;76.37
64616;BME280;51027;42.162;24.754;2023-01-29T11:32:29;100115.63;;;6.67;74.72
64616;BME280;51027;42.162;24.754;2023-01-29T11:35:00;100116.06;;;7.40;71.18
64616;BME280;51027;42.162;24.754;2023-01-29T11:37:38;100109.66;;;7.95;69.96
64616;BME280;51027;42.162;24.754;2023-01-29T11:40:39;100105.63;;;9.26;64.67
64616;BME280;51027;42.162;24.754;2023-01-29T11:43:21;100096.25;;;10.07;62.36
64616;BME280;51027;42.162;24.754;2023-01-29T11:45:49;100098.66;;;11.45;57.36
64616;BME280;51027;42.162;24.754;2023-01-29T11:48:24;100092.31;;;7.47;65.52
64616;BME280;51027;42.162;24.754;2023-01-29T11:51:00;100099.03;;;9.11;63.48
64616;BME280;51027;42.162;24.754;2023-01-29T11:53:35;100096.06;;;7.77;65.31
64616;BME280;51027;42.162;24.754;2023-01-29T11:56:04;100097.56;;;8.65;63.70
64616;BME280;51027;42.162;24.754;2023-01-29T11:58:33;100085.13;;;7.12;68.59
64616;BME280;51027;42.162;24.754;2023-01-29T12:00:59;100095.44;;;6.74;70.30
64616;BME280;51027;42.162;24.754;2023-01-29T12:03:43;100084.19;;;8.74;63.54
64616;BME280;51027;42.162;24.754;2023-01-29T12:06:18;100087.59;;;8.78;62.40
64616;BME280;51027;42.162;24.754;2023-01-29T12:08:53;100082.72;;;7.88;65.00
64616;BME280;51027;42.162;24.754;2023-01-29T12:11:33;100089.34;;;7.64;66.20
64616;BME280;51027;42.162;24.754;2023-01-29T12:14:05;100085.78;;;7.23;67.21
64616;BME280;51027;42.162;24.754;2023-01-29T12:16:58;100075.06;;;6.40;69.60
64616;BME280;51027;42.162;24.754;2023-01-29T12:19:37;100060.06;;;6.51;69.89
64616;BME280;51027;42.162;24.754;2023-01-29T12:24:56;100073.13;;;5.96;72.10
64616;BME280;51027;42.162;24.754;2023-01-29T12:27:44;100061.97;;;5.83;72.27
64616;BME280;51027;42.162;24.754;2023-01-29T12:30:25;100062.50;;;6.08;71.39
64616;BME280;51027;42.162;24.754;2023-01-29T12:32:58;100060.22;;;5.81;72.73
64616;BME280;51027;42.162;24.754;2023-01-29T12:35:35;100051.09;;;6.12;71.53
64616;BME280;51027;42.162;24.754;2023-01-29T12:38:09;100054.97;;;5.84;72.20
64616;BME280;51027;42.162;24.754;2023-01-29T12:40:45;100058.59;;;6.35;70.87
64616;BME280;51027;42.162;24.754;2023-01-29T12:46:05;100052.72;;;6.19;70.33
64616;BME280;51027;42.162;24.754;2023-01-29T12:48:36;100054.34;;;6.28;71.00
64616;BME280;51027;42.162;24.754;2023-01-29T12:51:16;100055.16;;;6.30;70.90
64616;BME280;51027;42.162;24.754;2023-01-29T12:56:33;100037.16;;;6.13;71.17
64616;BME280;51027;42.162;24.754;2023-01-29T12:59:04;100056.78;;;5.78;72.31
64616;BME280;51027;42.162;24.754;2023-01-29T13:01:43;100053.44;;;5.69;72.12
64616;BME280;51027;42.162;24.754;2023-01-29T13:07:10;100060.13;;;5.91;71.10
64616;BME280;51027;42.162;24.754;2023-01-29T13:09:38;100060.34;;;6.33;70.55
64616;BME280;51027;42.162;24.754;2023-01-29T13:12:11;100056.91;;;6.31;70.01
64616;BME280;51027;42.162;24.754;2023-01-29T13:14:50;100059.16;;;6.52;69.77
64616;BME280;51027;42.162;24.754;2023-01-29T13:17:22;100054.72;;;6.02;70.55
64616;BME280;51027;42.162;24.754;2023-01-29T13:19:51;100051.25;;;6.01;69.40
64616;BME280;51027;42.162;24.754;2023-01-29T13:22:24;100032.88;;;6.07;69.57
64616;BME280;51027;42.162;24.754;2023-01-29T13:24:52;100064.16;;;6.12;69.21
64616;BME280;51027;42.162;24.754;2023-01-29T13:27:24;100053.75;;;6.09;68.57
64616;BME280;51027;42.162;24.754;2023-01-29T13:29:51;100058.75;;;6.23;67.96
64616;BME280;51027;42.162;24.754;2023-01-29T13:32:26;100043.00;;;6.27;67.16
64616;BME280;51027;42.162;24.754;2023-01-29T13:34:54;100054.25;;;6.32;66.45
64616;BME280;51027;42.162;24.754;2023-01-29T13:37:26;100058.16;;;6.07;66.91
64616;BME280;51027;42.162;24.754;2023-01-29T13:39:56;100042.94;;;6.32;66.23
64616;BME280;51027;42.162;24.754;2023-01-29T13:42:32;100061.09;;;6.41;65.69
64616;BME280;51027;42.162;24.754;2023-01-29T13:45:03;100059.56;;;6.28;65.81
64616;BME280;51027;42.162;24.754;2023-01-29T13:47:35;100053.19;;;6.46;65.19
64616;BME280;51027;42.162;24.754;2023-01-29T13:50:17;100054.47;;;6.19;65.21
64616;BME280;51027;42.162;24.754;2023-01-29T13:53:20;100057.03;;;6.23;65.73
64616;BME280;51027;42.162;24.754;2023-01-29T13:55:47;100062.88;;;6.39;65.66
64616;BME280;51027;42.162;24.754;2023-01-29T13:58:15;100061.53;;;6.15;65.92
64616;BME280;51027;42.162;24.754;2023-01-29T14:05:55;100066.38;;;6.38;66.27
64616;BME280;51027;42.162;24.754;2023-01-29T14:13:45;100063.34;;;6.09;67.45
64616;BME280;51027;42.162;24.754;2023-01-29T14:18:55;100060.94;;;5.95;67.96
64616;BME280;51027;42.162;24.754;2023-01-29T14:21:23;100055.84;;;5.84;68.15
64616;BME280;51027;42.162;24.754;2023-01-29T14:23:54;100066.13;;;5.98;68.19
64616;BME280;51027;42.162;24.754;2023-01-29T14:34:01;100073.09;;;5.99;67.25
64616;BME280;51027;42.162;24.754;2023-01-29T14:36:27;100077.44;;;5.98;67.40
64616;BME280;51027;42.162;24.754;2023-01-29T14:38:53;100074.94;;;5.91;66.97
64616;BME280;51027;42.162;24.754;2023-01-29T14:41:28;100058.50;;;5.79;67.30
64616;BME280;51027;42.162;24.754;2023-01-29T14:46:57;100083.50;;;6.00;67.10
64616;BME280;51027;42.162;24.754;2023-01-29T14:52:13;100079.41;;;5.83;68.76
64616;BME280;51027;42.162;24.754;2023-01-29T14:54:41;100076.81;;;5.79;69.17
64616;BME280;51027;42.162;24.754;2023-01-29T14:57:10;100073.50;;;5.67;70.07
64616;BME280;51027;42.162;24.754;2023-01-29T14:59:53;100079.38;;;5.84;70.50
64616;BME280;51027;42.162;24.754;2023-01-29T15:02:29;100088.94;;;5.85;70.65
64616;BME280;51027;42.162;24.754;2023-01-29T15:05:02;100079.44;;;5.78;71.11
64616;BME280;51027;42.162;24.754;2023-01-29T15:07:43;100098.69;;;5.74;71.47